sensor_id;sensor_type;location;lat;lon;timestamp;temperature;humidity
2907;DHT22;1463;51.070;16.998;2023-06-22T00:01:48;25.10;99.90
2907;DHT22;1463;51.070;16.998;2023-06-22T00:04:15;25.10;99.90
2907;DHT22;1463;51.070;16.998;2023-06-22T00:06:43;25.00;99.90
2907;DHT22;1463;51.070;16.998;2023-06-22T00:09:10;25.00;99.90
2907;DHT22;1463;51.070;16.998;2023-06-22T00:11:37;25.00;99.90
2907;DHT22;1463;51.070;16.998;2023-06-22T00:14:05;25.00;99.90
2907;DHT22;1463;51.070;16.998;2023-06-22T00:16:35;25.10;99.90
2907;DHT22;1463;51.070;16.998;2023-06-22T00:19:02;25.10;99.90
2907;DHT22;1463;51.070;16.998;2023-06-22T00:21:30;25.10;99.90
2907;DHT22;1463;51.070;16.998;2023-06-22T00:23:58;25.00;99.90
2907;DHT22;1463;51.070;16.998;2023-06-22T00:26:25;25.10;99.90
2907;DHT22;1463;51.070;16.998;2023-06-22T00:28:53;25.00;99.90
2907;DHT22;1463;51.070;16.998;2023-06-22T00:31:20;25.10;99.90
2907;DHT22;1463;51.070;16.998;2023-06-22T00:33:49;25.20;99.90
2907;DHT22;1463;51.070;16.998;2023-06-22T00:36:17;25.10;99.90
2907;DHT22;1463;51.070;16.998;2023-06-22T00:38:45;25.00;99.90
2907;DHT22;1463;51.070;16.998;2023-06-22T00:41:12;25.00;99.90
2907;DHT22;1463;51.070;16.998;2023-06-22T00:43:40;24.90;99.90
2907;DHT22;1463;51.070;16.998;2023-06-22T00:46:08;24.80;99.90
2907;DHT22;1463;51.070;16.998;2023-06-22T00:48:35;24.70;99.90
2907;DHT22;1463;51.070;16.998;2023-06-22T00:51:05;24.60;99.90
2907;DHT22;1463;51.070;16.998;2023-06-22T00:53:33;24.60;99.90
2907;DHT22;1463;51.070;16.998;2023-06-22T00:56:03;24.50;99.90
2907;DHT22;1463;51.070;16.998;2023-06-22T00:58:32;24.50;99.90
2907;DHT22;1463;51.070;16.998;2023-06-22T01:00:59;24.50;99.90
2907;DHT22;1463;51.070;16.998;2023-06-22T01:03:28;24.40;99.90
2907;DHT22;1463;51.070;16.998;2023-06-22T01:06:01;24.40;99.90
2907;DHT22;1463;51.070;16.998;2023-06-22T01:08:38;24.40;99.90
2907;DHT22;1463;51.070;16.998;2023-06-22T01:11:10;24.30;99.90
2907;DHT22;1463;51.070;16.998;2023-06-22T01:13:44;24.30;99.90
2907;DHT22;1463;51.070;16.998;2023-06-22T01:16:15;24.40;99.90
2907;DHT22;1463;51.070;16.998;2023-06-22T01:18:45;24.40;99.90
2907;DHT22;1463;51.070;16.998;2023-06-22T01:21:16;24.40;99.90
2907;DHT22;1463;51.070;16.998;2023-06-22T01:23:56;24.40;99.90
2907;DHT22;1463;51.070;16.998;2023-06-22T01:26:36;24.30;99.90
2907;DHT22;1463;51.070;16.998;2023-06-22T01:29:06;24.30;99.90
2907;DHT22;1463;51.070;16.998;2023-06-22T01:31:35;24.20;99.90
2907;DHT22;1463;51.070;16.998;2023-06-22T01:34:04;24.30;99.90
2907;DHT22;1463;51.070;16.998;2023-06-22T01:36:34;24.40;99.90
2907;DHT22;1463;51.070;16.998;2023-06-22T01:39:02;24.40;99.90
2907;DHT22;1463;51.070;16.998;2023-06-22T01:41:36;24.30;99.90
2907;DHT22;1463;51.070;16.998;2023-06-22T01:44:06;24.30;99.90
2907;DHT22;1463;51.070;16.998;2023-06-22T01:46:35;24.30;99.90
2907;DHT22;1463;51.070;16.998;2023-06-22T01:49:04;24.20;99.90
2907;DHT22;1463;51.070;16.998;2023-06-22T01:51:32;24.20;99.90
2907;DHT22;1463;51.070;16.998;2023-06-22T01:54:00;24.00;99.90
2907;DHT22;1463;51.070;16.998;2023-06-22T01:56:28;24.00;99.90
2907;DHT22;1463;51.070;16.998;2023-06-22T01:59:01;23.90;99.90
2907;DHT22;1463;51.070;16.998;2023-06-22T02:01:39;23.80;99.90
2907;DHT22;1463;51.070;16.998;2023-06-22T02:04:13;23.70;99.90
2907;DHT22;1463;51.070;16.998;2023-06-22T02:06:43;23.60;99.90
2907;DHT22;1463;51.070;16.998;2023-06-22T02:09:15;23.50;99.90
2907;DHT22;1463;51.070;16.998;2023-06-22T02:11:44;23.50;99.90
2907;DHT22;1463;51.070;16.998;2023-06-22T02:14:16;23.60;99.90
2907;DHT22;1463;51.070;16.998;2023-06-22T02:16:45;23.50;99.90
2907;DHT22;1463;51.070;16.998;2023-06-22T02:19:13;23.50;99.90
2907;DHT22;1463;51.070;16.998;2023-06-22T02:21:44;23.50;99.90
2907;DHT22;1463;51.070;16.998;2023-06-22T02:24:11;23.60;99.90
2907;DHT22;1463;51.070;16.998;2023-06-22T02:26:39;23.60;99.90
2907;DHT22;1463;51.070;16.998;2023-06-22T02:29:08;23.50;99.90
2907;DHT22;1463;51.070;16.998;2023-06-22T02:31:35;23.40;99.90
2907;DHT22;1463;51.070;16.998;2023-06-22T02:34:04;23.40;99.90
2907;DHT22;1463;51.070;16.998;2023-06-22T02:36:32;23.40;99.90
2907;DHT22;1463;51.070;16.998;2023-06-22T02:39:00;23.40;99.90
2907;DHT22;1463;51.070;16.998;2023-06-22T02:41:29;23.30;99.90
2907;DHT22;1463;51.070;16.998;2023-06-22T02:43:57;23.30;99.90
2907;DHT22;1463;51.070;16.998;2023-06-22T02:46:24;23.20;99.90
2907;DHT22;1463;51.070;16.998;2023-06-22T02:48:52;23.20;99.90
2907;DHT22;1463;51.070;16.998;2023-06-22T02:51:21;23.20;99.90
2907;DHT22;1463;51.070;16.998;2023-06-22T02:53:48;23.20;99.90
2907;DHT22;1463;51.070;16.998;2023-06-22T02:56:18;23.20;99.90
2907;DHT22;1463;51.070;16.998;2023-06-22T02:58:50;23.20;99.90
2907;DHT22;1463;51.070;16.998;2023-06-22T03:01:18;23.20;99.90
2907;DHT22;1463;51.070;16.998;2023-06-22T03:03:50;23.20;99.90
2907;DHT22;1463;51.070;16.998;2023-06-22T03:06:17;23.20;99.90
2907;DHT22;1463;51.070;16.998;2023-06-22T03:08:50;23.20;99.90
2907;DHT22;1463;51.070;16.998;2023-06-22T03:11:18;23.20;99.90
2907;DHT22;1463;51.070;16.998;2023-06-22T03:13:45;23.20;99.90
2907;DHT22;1463;51.070;16.998;2023-06-22T03:16:13;23.10;99.90
2907;DHT22;1463;51.070;16.998;2023-06-22T03:18:40;23.00;99.90
2907;DHT22;1463;51.070;16.998;2023-06-22T03:21:08;23.00;99.90
2907;DHT22;1463;51.070;16.998;2023-06-22T03:23:35;23.20;99.90
2907;DHT22;1463;51.070;16.998;2023-06-22T03:26:04;23.10;99.90
2907;DHT22;1463;51.070;16.998;2023-06-22T03:28:32;23.10;99.90
2907;DHT22;1463;51.070;16.998;2023-06-22T03:31:00;23.00;99.90
2907;DHT22;1463;51.070;16.998;2023-06-22T03:33:27;22.90;99.90
2907;DHT22;1463;51.070;16.998;2023-06-22T03:35:55;22.90;99.90
2907;DHT22;1463;51.070;16.998;2023-06-22T03:38:23;22.90;99.90
2907;DHT22;1463;51.070;16.998;2023-06-22T03:40:50;23.00;99.90
2907;DHT22;1463;51.070;16.998;2023-06-22T03:43:19;23.00;99.90
2907;DHT22;1463;51.070;16.998;2023-06-22T03:45:47;23.00;99.90
2907;DHT22;1463;51.070;16.998;2023-06-22T03:48:14;23.00;99.90
2907;DHT22;1463;51.070;16.998;2023-06-22T03:50:42;23.00;99.90
2907;DHT22;1463;51.070;16.998;2023-06-22T03:53:10;23.00;99.90
2907;DHT22;1463;51.070;16.998;2023-06-22T03:55:48;23.00;99.90
2907;DHT22;1463;51.070;16.998;2023-06-22T03:58:16;23.00;99.90
2907;DHT22;1463;51.070;16.998;2023-06-22T04:00:46;23.00;99.90
2907;DHT22;1463;51.070;16.998;2023-06-22T04:03:14;22.90;99.90
2907;DHT22;1463;51.070;16.998;2023-06-22T04:05:42;23.00;99.90
2907;DHT22;1463;51.070;16.998;2023-06-22T04:08:10;23.00;99.90
2907;DHT22;1463;51.070;16.998;2023-06-22T04:10:37;23.10;99.90
2907;DHT22;1463;51.070;16.998;2023-06-22T04:13:05;23.00;99.90
2907;DHT22;1463;51.070;16.998;2023-06-22T04:15:32;23.00;99.90
2907;DHT22;1463;51.070;16.998;2023-06-22T04:18:01;23.00;99.90
2907;DHT22;1463;51.070;16.998;2023-06-22T04:20:29;22.90;99.90
2907;DHT22;1463;51.070;16.998;2023-06-22T04:22:57;22.90;99.90
2907;DHT22;1463;51.070;16.998;2023-06-22T04:25:24;22.90;99.90
2907;DHT22;1463;51.070;16.998;2023-06-22T04:27:52;23.00;99.90
2907;DHT22;1463;51.070;16.998;2023-06-22T04:30:19;23.10;99.90
2907;DHT22;1463;51.070;16.998;2023-06-22T04:32:47;23.20;99.90
2907;DHT22;1463;51.070;16.998;2023-06-22T04:35:25;23.00;99.90
2907;DHT22;1463;51.070;16.998;2023-06-22T04:37:55;23.00;99.90
2907;DHT22;1463;51.070;16.998;2023-06-22T04:40:23;23.10;99.90
2907;DHT22;1463;51.070;16.998;2023-06-22T04:42:50;23.20;99.90
2907;DHT22;1463;51.070;16.998;2023-06-22T04:45:20;23.20;99.90
2907;DHT22;1463;51.070;16.998;2023-06-22T04:47:48;23.20;99.90
2907;DHT22;1463;51.070;16.998;2023-06-22T04:50:15;23.30;99.90
2907;DHT22;1463;51.070;16.998;2023-06-22T04:52:45;23.30;99.90
2907;DHT22;1463;51.070;16.998;2023-06-22T04:55:12;23.40;99.90
2907;DHT22;1463;51.070;16.998;2023-06-22T04:57:44;23.40;99.90
2907;DHT22;1463;51.070;16.998;2023-06-22T05:00:15;23.40;99.90
2907;DHT22;1463;51.070;16.998;2023-06-22T05:02:44;23.50;99.90
2907;DHT22;1463;51.070;16.998;2023-06-22T05:05:12;23.60;99.90
2907;DHT22;1463;51.070;16.998;2023-06-22T05:07:41;23.70;99.90
2907;DHT22;1463;51.070;16.998;2023-06-22T05:10:12;23.70;99.90
2907;DHT22;1463;51.070;16.998;2023-06-22T05:12:40;23.80;99.90
2907;DHT22;1463;51.070;16.998;2023-06-22T05:15:09;23.90;99.90
2907;DHT22;1463;51.070;16.998;2023-06-22T05:17:37;24.00;99.90
2907;DHT22;1463;51.070;16.998;2023-06-22T05:20:11;24.00;99.90
2907;DHT22;1463;51.070;16.998;2023-06-22T05:22:40;24.00;99.90
2907;DHT22;1463;51.070;16.998;2023-06-22T05:25:11;24.10;99.90
2907;DHT22;1463;51.070;16.998;2023-06-22T05:27:39;24.10;99.90
2907;DHT22;1463;51.070;16.998;2023-06-22T05:30:07;24.10;99.90
2907;DHT22;1463;51.070;16.998;2023-06-22T05:32:35;24.10;99.90
2907;DHT22;1463;51.070;16.998;2023-06-22T05:35:02;24.10;99.90
2907;DHT22;1463;51.070;16.998;2023-06-22T05:37:30;24.10;99.90
2907;DHT22;1463;51.070;16.998;2023-06-22T05:39:57;24.10;99.90
2907;DHT22;1463;51.070;16.998;2023-06-22T05:42:26;24.10;99.90
2907;DHT22;1463;51.070;16.998;2023-06-22T05:44:53;24.10;99.90
2907;DHT22;1463;51.070;16.998;2023-06-22T05:47:21;24.20;99.90
2907;DHT22;1463;51.070;16.998;2023-06-22T05:49:49;24.20;99.90
2907;DHT22;1463;51.070;16.998;2023-06-22T05:52:16;24.20;99.90
2907;DHT22;1463;51.070;16.998;2023-06-22T05:54:43;24.30;99.90
2907;DHT22;1463;51.070;16.998;2023-06-22T05:57:11;24.20;99.90
2907;DHT22;1463;51.070;16.998;2023-06-22T05:59:40;24.30;99.90
2907;DHT22;1463;51.070;16.998;2023-06-22T06:02:07;24.40;99.90
2907;DHT22;1463;51.070;16.998;2023-06-22T06:04:34;24.30;99.90
2907;DHT22;1463;51.070;16.998;2023-06-22T06:07:02;24.40;99.90
2907;DHT22;1463;51.070;16.998;2023-06-22T06:09:30;24.40;99.90
2907;DHT22;1463;51.070;16.998;2023-06-22T06:11:57;24.50;99.90
2907;DHT22;1463;51.070;16.998;2023-06-22T06:14:25;24.60;99.90
2907;DHT22;1463;51.070;16.998;2023-06-22T06:16:53;24.60;99.90
2907;DHT22;1463;51.070;16.998;2023-06-22T06:19:21;24.70;99.90
2907;DHT22;1463;51.070;16.998;2023-06-22T06:21:48;24.60;99.90
2907;DHT22;1463;51.070;16.998;2023-06-22T06:24:16;24.60;99.90
2907;DHT22;1463;51.070;16.998;2023-06-22T06:26:43;24.70;99.90
2907;DHT22;1463;51.070;16.998;2023-06-22T06:29:11;24.70;99.90
2907;DHT22;1463;51.070;16.998;2023-06-22T06:31:38;24.80;99.90
2907;DHT22;1463;51.070;16.998;2023-06-22T06:34:07;24.80;99.90
2907;DHT22;1463;51.070;16.998;2023-06-22T06:36:35;24.80;99.90
2907;DHT22;1463;51.070;16.998;2023-06-22T06:39:03;24.80;99.90
2907;DHT22;1463;51.070;16.998;2023-06-22T06:41:31;24.80;99.90
2907;DHT22;1463;51.070;16.998;2023-06-22T06:43:58;24.80;99.90
2907;DHT22;1463;51.070;16.998;2023-06-22T06:46:26;24.90;99.90
2907;DHT22;1463;51.070;16.998;2023-06-22T06:48:54;25.00;99.90
2907;DHT22;1463;51.070;16.998;2023-06-22T06:51:23;25.00;99.90
2907;DHT22;1463;51.070;16.998;2023-06-22T06:53:50;25.10;99.90
2907;DHT22;1463;51.070;16.998;2023-06-22T06:56:18;25.10;99.90
2907;DHT22;1463;51.070;16.998;2023-06-22T06:58:45;25.20;99.90
2907;DHT22;1463;51.070;16.998;2023-06-22T07:01:13;25.20;99.90
2907;DHT22;1463;51.070;16.998;2023-06-22T07:03:40;25.30;99.90
2907;DHT22;1463;51.070;16.998;2023-06-22T07:06:08;25.30;99.90
2907;DHT22;1463;51.070;16.998;2023-06-22T07:08:37;25.20;99.90
2907;DHT22;1463;51.070;16.998;2023-06-22T07:11:05;25.30;99.90
2907;DHT22;1463;51.070;16.998;2023-06-22T07:13:33;25.20;99.90
2907;DHT22;1463;51.070;16.998;2023-06-22T07:16:00;25.40;99.90
2907;DHT22;1463;51.070;16.998;2023-06-22T07:18:28;25.60;99.90
2907;DHT22;1463;51.070;16.998;2023-06-22T07:20:56;25.70;99.90
2907;DHT22;1463;51.070;16.998;2023-06-22T07:23:23;25.80;99.90
2907;DHT22;1463;51.070;16.998;2023-06-22T07:25:52;25.90;99.90
2907;DHT22;1463;51.070;16.998;2023-06-22T07:28:20;26.00;99.90
2907;DHT22;1463;51.070;16.998;2023-06-22T07:30:47;26.10;99.90
2907;DHT22;1463;51.070;16.998;2023-06-22T07:33:14;26.20;99.90
2907;DHT22;1463;51.070;16.998;2023-06-22T07:35:43;26.20;99.90
2907;DHT22;1463;51.070;16.998;2023-06-22T07:38:12;26.30;99.90
2907;DHT22;1463;51.070;16.998;2023-06-22T07:40:40;26.40;99.90
2907;DHT22;1463;51.070;16.998;2023-06-22T07:43:09;26.40;99.90
2907;DHT22;1463;51.070;16.998;2023-06-22T07:45:38;26.40;99.90
2907;DHT22;1463;51.070;16.998;2023-06-22T07:48:06;26.40;99.90
2907;DHT22;1463;51.070;16.998;2023-06-22T07:50:33;26.40;99.90
2907;DHT22;1463;51.070;16.998;2023-06-22T07:53:01;26.50;99.90
2907;DHT22;1463;51.070;16.998;2023-06-22T07:55:28;26.70;99.90
2907;DHT22;1463;51.070;16.998;2023-06-22T07:57:56;26.70;99.90
2907;DHT22;1463;51.070;16.998;2023-06-22T08:00:25;26.80;99.90
2907;DHT22;1463;51.070;16.998;2023-06-22T08:02:53;26.80;99.90
2907;DHT22;1463;51.070;16.998;2023-06-22T08:05:20;26.80;99.90
2907;DHT22;1463;51.070;16.998;2023-06-22T08:07:48;26.80;99.90
2907;DHT22;1463;51.070;16.998;2023-06-22T08:10:16;26.80;99.90
2907;DHT22;1463;51.070;16.998;2023-06-22T08:12:43;26.70;99.90
2907;DHT22;1463;51.070;16.998;2023-06-22T08:15:11;26.70;99.90
2907;DHT22;1463;51.070;16.998;2023-06-22T08:17:40;26.80;99.90
2907;DHT22;1463;51.070;16.998;2023-06-22T08:20:09;26.90;99.90
2907;DHT22;1463;51.070;16.998;2023-06-22T08:22:38;27.00;99.90
2907;DHT22;1463;51.070;16.998;2023-06-22T08:25:06;27.20;99.90
2907;DHT22;1463;51.070;16.998;2023-06-22T08:27:34;27.20;99.90
2907;DHT22;1463;51.070;16.998;2023-06-22T08:30:02;27.20;99.90
2907;DHT22;1463;51.070;16.998;2023-06-22T08:32:30;27.20;99.90
2907;DHT22;1463;51.070;16.998;2023-06-22T08:35:00;27.30;99.90
2907;DHT22;1463;51.070;16.998;2023-06-22T08:37:28;27.30;99.90
2907;DHT22;1463;51.070;16.998;2023-06-22T08:39:58;27.20;99.90
2907;DHT22;1463;51.070;16.998;2023-06-22T08:42:26;27.10;99.90
2907;DHT22;1463;51.070;16.998;2023-06-22T08:44:53;27.10;99.90
2907;DHT22;1463;51.070;16.998;2023-06-22T08:47:21;27.10;99.90
2907;DHT22;1463;51.070;16.998;2023-06-22T08:49:48;27.10;99.90
2907;DHT22;1463;51.070;16.998;2023-06-22T08:52:17;27.20;99.90
2907;DHT22;1463;51.070;16.998;2023-06-22T08:54:45;27.30;99.90
2907;DHT22;1463;51.070;16.998;2023-06-22T08:57:13;27.40;99.90
2907;DHT22;1463;51.070;16.998;2023-06-22T08:59:42;27.50;99.90
2907;DHT22;1463;51.070;16.998;2023-06-22T09:02:12;27.50;99.90
2907;DHT22;1463;51.070;16.998;2023-06-22T09:04:40;27.70;99.90
2907;DHT22;1463;51.070;16.998;2023-06-22T09:07:08;27.60;99.90
2907;DHT22;1463;51.070;16.998;2023-06-22T09:09:36;27.70;99.90
2907;DHT22;1463;51.070;16.998;2023-06-22T09:12:05;27.90;99.90
2907;DHT22;1463;51.070;16.998;2023-06-22T09:14:34;28.00;99.90
2907;DHT22;1463;51.070;16.998;2023-06-22T09:17:01;28.00;99.90
2907;DHT22;1463;51.070;16.998;2023-06-22T09:19:29;27.90;99.90
2907;DHT22;1463;51.070;16.998;2023-06-22T09:21:56;27.80;99.90
2907;DHT22;1463;51.070;16.998;2023-06-22T09:24:24;27.70;99.90
2907;DHT22;1463;51.070;16.998;2023-06-22T09:27:15;27.70;99.90
2907;DHT22;1463;51.070;16.998;2023-06-22T09:29:43;27.60;99.90
2907;DHT22;1463;51.070;16.998;2023-06-22T09:32:11;27.60;99.90
2907;DHT22;1463;51.070;16.998;2023-06-22T09:34:39;27.80;99.90
2907;DHT22;1463;51.070;16.998;2023-06-22T09:37:09;28.10;99.90
2907;DHT22;1463;51.070;16.998;2023-06-22T09:39:37;28.30;99.90
2907;DHT22;1463;51.070;16.998;2023-06-22T09:42:05;28.40;99.90
2907;DHT22;1463;51.070;16.998;2023-06-22T09:44:35;28.60;99.90
2907;DHT22;1463;51.070;16.998;2023-06-22T09:47:03;28.70;99.90
2907;DHT22;1463;51.070;16.998;2023-06-22T09:49:30;28.80;99.90
2907;DHT22;1463;51.070;16.998;2023-06-22T09:51:58;28.80;99.90
2907;DHT22;1463;51.070;16.998;2023-06-22T09:54:26;28.80;99.90
2907;DHT22;1463;51.070;16.998;2023-06-22T09:56:53;28.80;99.90
2907;DHT22;1463;51.070;16.998;2023-06-22T09:59:21;28.80;99.90
2907;DHT22;1463;51.070;16.998;2023-06-22T10:01:50;28.80;99.90
2907;DHT22;1463;51.070;16.998;2023-06-22T10:04:17;28.90;99.90
2907;DHT22;1463;51.070;16.998;2023-06-22T10:06:45;28.90;99.90
2907;DHT22;1463;51.070;16.998;2023-06-22T10:09:12;28.80;99.90
2907;DHT22;1463;51.070;16.998;2023-06-22T10:11:40;28.80;99.90
2907;DHT22;1463;51.070;16.998;2023-06-22T10:14:07;28.80;99.90
2907;DHT22;1463;51.070;16.998;2023-06-22T10:16:36;28.80;99.90
2907;DHT22;1463;51.070;16.998;2023-06-22T10:19:05;28.90;99.90
2907;DHT22;1463;51.070;16.998;2023-06-22T10:21:33;28.90;99.90
2907;DHT22;1463;51.070;16.998;2023-06-22T10:24:01;28.90;99.90
2907;DHT22;1463;51.070;16.998;2023-06-22T10:26:32;29.00;99.90
2907;DHT22;1463;51.070;16.998;2023-06-22T10:28:59;29.10;99.90
2907;DHT22;1463;51.070;16.998;2023-06-22T10:31:27;29.10;99.90
2907;DHT22;1463;51.070;16.998;2023-06-22T10:33:55;29.00;99.90
2907;DHT22;1463;51.070;16.998;2023-06-22T10:36:24;28.90;99.90
2907;DHT22;1463;51.070;16.998;2023-06-22T10:38:52;28.90;99.90
2907;DHT22;1463;51.070;16.998;2023-06-22T10:41:21;28.90;99.90
2907;DHT22;1463;51.070;16.998;2023-06-22T10:43:48;28.90;99.90
2907;DHT22;1463;51.070;16.998;2023-06-22T10:46:16;28.90;99.90
2907;DHT22;1463;51.070;16.998;2023-06-22T10:48:44;28.90;99.90
2907;DHT22;1463;51.070;16.998;2023-06-22T10:51:11;28.90;99.90
2907;DHT22;1463;51.070;16.998;2023-06-22T10:53:40;29.00;99.90
2907;DHT22;1463;51.070;16.998;2023-06-22T10:56:07;29.00;99.90
2907;DHT22;1463;51.070;16.998;2023-06-22T10:58:35;29.10;99.90
2907;DHT22;1463;51.070;16.998;2023-06-22T11:01:02;29.20;99.90
2907;DHT22;1463;51.070;16.998;2023-06-22T11:03:30;29.10;99.90
2907;DHT22;1463;51.070;16.998;2023-06-22T11:05:57;29.10;99.90
2907;DHT22;1463;51.070;16.998;2023-06-22T11:08:24;29.10;99.90
2907;DHT22;1463;51.070;16.998;2023-06-22T11:10:53;29.10;99.40
2907;DHT22;1463;51.070;16.998;2023-06-22T11:13:21;29.00;99.50
2907;DHT22;1463;51.070;16.998;2023-06-22T11:15:48;29.00;99.90
2907;DHT22;1463;51.070;16.998;2023-06-22T11:18:16;28.90;99.90
2907;DHT22;1463;51.070;16.998;2023-06-22T11:20:43;28.90;99.90
2907;DHT22;1463;51.070;16.998;2023-06-22T11:23:11;28.70;99.90
2907;DHT22;1463;51.070;16.998;2023-06-22T11:25:38;28.70;99.90
2907;DHT22;1463;51.070;16.998;2023-06-22T11:28:09;28.70;99.90
2907;DHT22;1463;51.070;16.998;2023-06-22T11:30:37;28.90;99.90
2907;DHT22;1463;51.070;16.998;2023-06-22T11:33:04;29.00;99.90
2907;DHT22;1463;51.070;16.998;2023-06-22T11:35:32;29.10;99.90
2907;DHT22;1463;51.070;16.998;2023-06-22T11:37:59;29.20;99.90
2907;DHT22;1463;51.070;16.998;2023-06-22T11:40:29;29.10;99.90
2907;DHT22;1463;51.070;16.998;2023-06-22T11:42:56;29.00;99.90
2907;DHT22;1463;51.070;16.998;2023-06-22T11:45:26;29.00;99.40
2907;DHT22;1463;51.070;16.998;2023-06-22T11:47:54;29.10;98.80
2907;DHT22;1463;51.070;16.998;2023-06-22T11:50:21;29.10;98.10
2907;DHT22;1463;51.070;16.998;2023-06-22T11:52:48;29.00;98.10
2907;DHT22;1463;51.070;16.998;2023-06-22T11:55:16;28.90;98.40
2907;DHT22;1463;51.070;16.998;2023-06-22T11:57:53;28.80;99.20
2907;DHT22;1463;51.070;16.998;2023-06-22T12:00:20;28.70;98.80
2907;DHT22;1463;51.070;16.998;2023-06-22T12:02:51;28.70;98.00
2907;DHT22;1463;51.070;16.998;2023-06-22T12:05:19;28.70;98.80
2907;DHT22;1463;51.070;16.998;2023-06-22T12:07:48;28.70;99.50
2907;DHT22;1463;51.070;16.998;2023-06-22T12:10:15;28.70;99.90
2907;DHT22;1463;51.070;16.998;2023-06-22T12:12:43;28.90;99.90
2907;DHT22;1463;51.070;16.998;2023-06-22T12:15:11;29.10;98.80
2907;DHT22;1463;51.070;16.998;2023-06-22T12:17:38;29.20;96.00
2907;DHT22;1463;51.070;16.998;2023-06-22T12:20:08;29.40;96.40
2907;DHT22;1463;51.070;16.998;2023-06-22T12:22:36;29.60;94.60
2907;DHT22;1463;51.070;16.998;2023-06-22T12:25:05;29.60;94.00
2907;DHT22;1463;51.070;16.998;2023-06-22T12:27:33;29.60;92.90
2907;DHT22;1463;51.070;16.998;2023-06-22T12:30:00;29.40;93.10
2907;DHT22;1463;51.070;16.998;2023-06-22T12:32:28;29.50;92.40
2907;DHT22;1463;51.070;16.998;2023-06-22T12:34:56;29.60;93.30
2907;DHT22;1463;51.070;16.998;2023-06-22T12:37:25;29.70;93.60
2907;DHT22;1463;51.070;16.998;2023-06-22T12:39:55;29.90;91.50
2907;DHT22;1463;51.070;16.998;2023-06-22T12:42:22;29.80;90.50
2907;DHT22;1463;51.070;16.998;2023-06-22T12:44:50;29.70;90.70
2907;DHT22;1463;51.070;16.998;2023-06-22T12:47:17;29.80;91.00
2907;DHT22;1463;51.070;16.998;2023-06-22T12:49:46;29.90;90.60
2907;DHT22;1463;51.070;16.998;2023-06-22T12:52:13;29.90;90.20
2907;DHT22;1463;51.070;16.998;2023-06-22T12:54:42;30.00;87.60
2907;DHT22;1463;51.070;16.998;2023-06-22T12:57:09;30.00;88.20
2907;DHT22;1463;51.070;16.998;2023-06-22T12:59:37;30.10;87.40
2907;DHT22;1463;51.070;16.998;2023-06-22T13:02:05;30.20;86.20
2907;DHT22;1463;51.070;16.998;2023-06-22T13:04:32;30.20;83.80
2907;DHT22;1463;51.070;16.998;2023-06-22T13:07:00;30.10;83.40
2907;DHT22;1463;51.070;16.998;2023-06-22T13:09:28;30.20;83.80
2907;DHT22;1463;51.070;16.998;2023-06-22T13:11:57;30.10;84.30
2907;DHT22;1463;51.070;16.998;2023-06-22T13:14:24;30.10;84.30
2907;DHT22;1463;51.070;16.998;2023-06-22T13:16:52;30.20;84.60
2907;DHT22;1463;51.070;16.998;2023-06-22T13:19:19;30.20;82.00
2907;DHT22;1463;51.070;16.998;2023-06-22T13:21:46;30.30;84.00
2907;DHT22;1463;51.070;16.998;2023-06-22T13:24:14;30.30;82.70
2907;DHT22;1463;51.070;16.998;2023-06-22T13:26:42;30.40;80.90
2907;DHT22;1463;51.070;16.998;2023-06-22T13:29:11;30.40;81.00
2907;DHT22;1463;51.070;16.998;2023-06-22T13:31:38;30.40;79.70
2907;DHT22;1463;51.070;16.998;2023-06-22T13:34:05;30.40;79.20
2907;DHT22;1463;51.070;16.998;2023-06-22T13:36:33;30.40;79.50
2907;DHT22;1463;51.070;16.998;2023-06-22T13:39:01;30.40;85.60
2907;DHT22;1463;51.070;16.998;2023-06-22T13:41:29;30.20;85.50
2907;DHT22;1463;51.070;16.998;2023-06-22T13:43:57;30.20;85.80
2907;DHT22;1463;51.070;16.998;2023-06-22T13:46:25;30.10;83.90
2907;DHT22;1463;51.070;16.998;2023-06-22T13:48:53;30.20;82.80
2907;DHT22;1463;51.070;16.998;2023-06-22T13:51:20;30.30;78.60
2907;DHT22;1463;51.070;16.998;2023-06-22T13:53:48;30.30;77.80
2907;DHT22;1463;51.070;16.998;2023-06-22T13:56:15;30.40;78.70
2907;DHT22;1463;51.070;16.998;2023-06-22T13:58:43;30.40;79.40
2907;DHT22;1463;51.070;16.998;2023-06-22T14:01:10;30.40;80.20
2907;DHT22;1463;51.070;16.998;2023-06-22T14:03:39;30.50;81.20
2907;DHT22;1463;51.070;16.998;2023-06-22T14:06:07;30.50;82.30
2907;DHT22;1463;51.070;16.998;2023-06-22T14:08:37;30.50;82.40
2907;DHT22;1463;51.070;16.998;2023-06-22T14:11:05;30.60;82.20
2907;DHT22;1463;51.070;16.998;2023-06-22T14:13:33;30.50;80.90
2907;DHT22;1463;51.070;16.998;2023-06-22T14:16:01;30.50;81.20
2907;DHT22;1463;51.070;16.998;2023-06-22T14:18:29;30.40;80.80
2907;DHT22;1463;51.070;16.998;2023-06-22T14:20:58;30.40;80.70
2907;DHT22;1463;51.070;16.998;2023-06-22T14:23:26;30.40;82.60
2907;DHT22;1463;51.070;16.998;2023-06-22T14:25:54;30.50;82.40
2907;DHT22;1463;51.070;16.998;2023-06-22T14:28:21;30.50;82.60
2907;DHT22;1463;51.070;16.998;2023-06-22T14:30:49;30.40;82.20
2907;DHT22;1463;51.070;16.998;2023-06-22T14:33:16;30.40;83.20
2907;DHT22;1463;51.070;16.998;2023-06-22T14:35:44;30.40;82.60
2907;DHT22;1463;51.070;16.998;2023-06-22T14:38:13;30.40;83.40
2907;DHT22;1463;51.070;16.998;2023-06-22T14:40:40;30.50;83.60
2907;DHT22;1463;51.070;16.998;2023-06-22T14:43:08;30.50;83.60
2907;DHT22;1463;51.070;16.998;2023-06-22T14:45:35;30.50;82.60
2907;DHT22;1463;51.070;16.998;2023-06-22T14:48:02;30.50;83.80
2907;DHT22;1463;51.070;16.998;2023-06-22T14:50:30;30.40;83.70
2907;DHT22;1463;51.070;16.998;2023-06-22T14:52:57;30.50;83.40
2907;DHT22;1463;51.070;16.998;2023-06-22T14:55:27;30.50;83.70
2907;DHT22;1463;51.070;16.998;2023-06-22T14:57:55;30.40;83.70
2907;DHT22;1463;51.070;16.998;2023-06-22T15:00:22;30.30;83.40
2907;DHT22;1463;51.070;16.998;2023-06-22T15:02:50;30.30;83.70
2907;DHT22;1463;51.070;16.998;2023-06-22T15:05:17;30.30;82.90
2907;DHT22;1463;51.070;16.998;2023-06-22T15:07:45;30.20;82.60
2907;DHT22;1463;51.070;16.998;2023-06-22T15:10:12;30.20;83.80
2907;DHT22;1463;51.070;16.998;2023-06-22T15:12:41;30.20;85.10
2907;DHT22;1463;51.070;16.998;2023-06-22T15:15:09;30.20;84.60
2907;DHT22;1463;51.070;16.998;2023-06-22T15:17:37;30.30;83.40
2907;DHT22;1463;51.070;16.998;2023-06-22T15:20:05;30.20;84.30
2907;DHT22;1463;51.070;16.998;2023-06-22T15:22:32;30.20;82.90
2907;DHT22;1463;51.070;16.998;2023-06-22T15:25:01;30.20;82.90
2907;DHT22;1463;51.070;16.998;2023-06-22T15:27:29;30.10;82.50
2907;DHT22;1463;51.070;16.998;2023-06-22T15:29:58;30.20;82.60
2907;DHT22;1463;51.070;16.998;2023-06-22T15:32:25;30.10;82.00
2907;DHT22;1463;51.070;16.998;2023-06-22T15:34:54;30.10;82.10
2907;DHT22;1463;51.070;16.998;2023-06-22T15:37:22;30.10;82.20
2907;DHT22;1463;51.070;16.998;2023-06-22T15:39:49;30.10;81.80
2907;DHT22;1463;51.070;16.998;2023-06-22T15:42:17;30.10;82.00
2907;DHT22;1463;51.070;16.998;2023-06-22T15:44:45;30.10;81.40
2907;DHT22;1463;51.070;16.998;2023-06-22T15:47:13;30.00;82.30
2907;DHT22;1463;51.070;16.998;2023-06-22T15:49:42;30.00;82.80
2907;DHT22;1463;51.070;16.998;2023-06-22T15:52:10;29.90;81.60